sensor_id;sensor_type;location;lat;lon;timestamp;P1;durP1;ratioP1;P2;durP2;ratioP2
3696;SDS011;60662;48.810;8.872;2023-07-20T07:19:51;13.07;;;7.25;;
3696;SDS011;60662;48.810;8.872;2023-07-20T07:20:55;10.18;;;2.40;;
3696;SDS011;60662;48.810;8.872;2023-07-20T07:21:57;5.47;;;2.10;;
3696;SDS011;60662;48.810;8.872;2023-07-20T07:23:01;7.65;;;2.30;;
3696;SDS011;60662;48.810;8.872;2023-07-20T07:25:16;7.40;;;2.30;;
3696;SDS011;60662;48.810;8.872;2023-07-20T07:26:23;7.40;;;2.40;;
3696;SDS011;60662;48.810;8.872;2023-07-20T07:27:25;6.35;;;2.13;;
3696;SDS011;60662;48.810;8.872;2023-07-20T07:28:28;6.53;;;2.42;;
3696;SDS011;60662;48.810;8.872;2023-07-20T07:29:29;11.18;;;2.05;;
3696;SDS011;60662;48.810;8.872;2023-07-20T07:30:31;8.65;;;4.07;;
3696;SDS011;60662;48.810;8.872;2023-07-20T07:31:35;14.52;;;3.70;;
3696;SDS011;60662;48.810;8.872;2023-07-20T07:32:40;8.95;;;2.10;;
3696;SDS011;60662;48.810;8.872;2023-07-20T07:41:03;7.03;;;2.40;;
3696;SDS011;60662;48.810;8.872;2023-07-20T07:42:05;14.73;;;2.80;;
3696;SDS011;60662;48.810;8.872;2023-07-20T07:43:07;11.82;;;2.40;;
3696;SDS011;60662;48.810;8.872;2023-07-20T07:44:10;6.93;;;2.40;;
3696;SDS011;60662;48.810;8.872;2023-07-20T07:49:06;12.88;;;2.42;;
3696;SDS011;60662;48.810;8.872;2023-07-20T07:50:08;7.57;;;2.13;;
3696;SDS011;60662;48.810;8.872;2023-07-20T07:51:11;7.45;;;2.10;;
3696;SDS011;60662;48.810;8.872;2023-07-20T07:52:14;9.52;;;2.00;;
3696;SDS011;60662;48.810;8.872;2023-07-20T07:53:16;6.95;;;2.80;;
3696;SDS011;60662;48.810;8.872;2023-07-20T07:54:17;8.18;;;2.80;;
3696;SDS011;60662;48.810;8.872;2023-07-20T07:55:19;11.23;;;4.15;;
3696;SDS011;60662;48.810;8.872;2023-07-20T07:56:20;9.00;;;6.43;;
3696;SDS011;60662;48.810;8.872;2023-07-20T07:57:26;13.32;;;5.85;;
3696;SDS011;60662;48.810;8.872;2023-07-20T07:58:27;21.77;;;17.30;;
3696;SDS011;60662;48.810;8.872;2023-07-20T07:59:29;27.52;;;24.67;;
3696;SDS011;60662;48.810;8.872;2023-07-20T08:00:32;31.33;;;19.60;;
3696;SDS011;60662;48.810;8.872;2023-07-20T08:01:33;47.08;;;39.35;;
3696;SDS011;60662;48.810;8.872;2023-07-20T08:04:38;73.25;;;65.70;;
3696;SDS011;60662;48.810;8.872;2023-07-20T08:05:40;71.20;;;63.90;;
3696;SDS011;60662;48.810;8.872;2023-07-20T08:06:42;62.92;;;56.30;;
3696;SDS011;60662;48.810;8.872;2023-07-20T08:07:43;47.72;;;38.53;;
3696;SDS011;60662;48.810;8.872;2023-07-20T08:08:45;63.97;;;58.08;;
3696;SDS011;60662;48.810;8.872;2023-07-20T08:09:46;37.53;;;29.70;;
3696;SDS011;60662;48.810;8.872;2023-07-20T08:10:48;142.00;;;130.52;;
3696;SDS011;60662;48.810;8.872;2023-07-20T08:11:49;231.00;;;213.35;;
3696;SDS011;60662;48.810;8.872;2023-07-20T08:12:51;195.85;;;181.98;;
3696;SDS011;60662;48.810;8.872;2023-07-20T08:13:53;600.75;;;555.33;;
3696;SDS011;60662;48.810;8.872;2023-07-20T08:14:54;841.10;;;771.05;;
3696;SDS011;60662;48.810;8.872;2023-07-20T08:15:56;1031.40;;;935.83;;
3696;SDS011;60662;48.810;8.872;2023-07-20T08:16:57;1127.05;;;999.90;;
3696;SDS011;60662;48.810;8.872;2023-07-20T08:17:59;1300.63;;;999.90;;
3696;SDS011;60662;48.810;8.872;2023-07-20T08:22:03;1540.63;;;999.90;;
3696;SDS011;60662;48.810;8.872;2023-07-20T08:23:05;1576.72;;;999.90;;
3696;SDS011;60662;48.810;8.872;2023-07-20T08:25:08;1498.15;;;999.90;;
3696;SDS011;60662;48.810;8.872;2023-07-20T08:26:10;1460.32;;;999.90;;
3696;SDS011;60662;48.810;8.872;2023-07-20T08:27:12;1615.25;;;999.90;;
3696;SDS011;60662;48.810;8.872;2023-07-20T08:28:14;1423.30;;;999.90;;
3696;SDS011;60662;48.810;8.872;2023-07-20T08:29:16;1618.32;;;999.90;;
3696;SDS011;60662;48.810;8.872;2023-07-20T08:30:21;1634.90;;;999.90;;
3696;SDS011;60662;48.810;8.872;2023-07-20T08:31:24;1587.05;;;999.90;;
3696;SDS011;60662;48.810;8.872;2023-07-20T08:33:36;1651.00;;;999.90;;
3696;SDS011;60662;48.810;8.872;2023-07-20T08:35:47;1334.30;;;999.90;;
3696;SDS011;60662;48.810;8.872;2023-07-20T08:37:55;1323.75;;;999.90;;
3696;SDS011;60662;48.810;8.872;2023-07-20T08:40:07;1414.53;;;999.90;;
3696;SDS011;60662;48.810;8.872;2023-07-20T08:41:10;1208.43;;;999.90;;
3696;SDS011;60662;48.810;8.872;2023-07-20T08:42:12;1069.07;;;950.38;;
3696;SDS011;60662;48.810;8.872;2023-07-20T08:43:15;1071.70;;;950.83;;
3696;SDS011;60662;48.810;8.872;2023-07-20T08:44:20;1159.53;;;992.88;;
3696;SDS011;60662;48.810;8.872;2023-07-20T08:45:22;1566.57;;;999.90;;
3696;SDS011;60662;48.810;8.872;2023-07-20T08:46:27;1615.13;;;999.90;;
3696;SDS011;60662;48.810;8.872;2023-07-20T08:47:29;1267.55;;;999.90;;
3696;SDS011;60662;48.810;8.872;2023-07-20T08:48:31;1048.35;;;947.20;;
3696;SDS011;60662;48.810;8.872;2023-07-20T08:49:34;1228.35;;;999.90;;
3696;SDS011;60662;48.810;8.872;2023-07-20T08:50:36;1043.72;;;940.55;;
3696;SDS011;60662;48.810;8.872;2023-07-20T08:51:39;1049.78;;;947.90;;
3696;SDS011;60662;48.810;8.872;2023-07-20T08:52:41;1056.95;;;955.33;;
3696;SDS011;60662;48.810;8.872;2023-07-20T08:53:43;1212.95;;;999.90;;
3696;SDS011;60662;48.810;8.872;2023-07-20T08:54:46;796.30;;;729.13;;
3696;SDS011;60662;48.810;8.872;2023-07-20T08:55:50;786.88;;;719.03;;
3696;SDS011;60662;48.810;8.872;2023-07-20T08:56:53;782.83;;;715.97;;
3696;SDS011;60662;48.810;8.872;2023-07-20T08:57:57;870.33;;;798.45;;
3696;SDS011;60662;48.810;8.872;2023-07-20T08:58:59;793.45;;;727.95;;
3696;SDS011;60662;48.810;8.872;2023-07-20T09:00:02;800.85;;;735.08;;
3696;SDS011;60662;48.810;8.872;2023-07-20T09:01:14;835.95;;;768.30;;
3696;SDS011;60662;48.810;8.872;2023-07-20T09:02:16;920.97;;;842.60;;
3696;SDS011;60662;48.810;8.872;2023-07-20T09:03:20;959.72;;;880.00;;
3696;SDS011;60662;48.810;8.872;2023-07-20T09:04:22;1005.33;;;915.92;;
3696;SDS011;60662;48.810;8.872;2023-07-20T09:05:24;974.17;;;889.85;;
3696;SDS011;60662;48.810;8.872;2023-07-20T09:06:27;990.45;;;905.15;;
3696;SDS011;60662;48.810;8.872;2023-07-20T09:07:29;968.78;;;884.92;;
3696;SDS011;60662;48.810;8.872;2023-07-20T09:08:32;1078.88;;;977.15;;
3696;SDS011;60662;48.810;8.872;2023-07-20T09:09:33;1030.75;;;939.17;;
3696;SDS011;60662;48.810;8.872;2023-07-20T09:11:51;1040.47;;;948.80;;
3696;SDS011;60662;48.810;8.872;2023-07-20T09:12:53;1020.75;;;930.38;;
3696;SDS011;60662;48.810;8.872;2023-07-20T09:14:04;1030.35;;;940.78;;
3696;SDS011;60662;48.810;8.872;2023-07-20T09:16:15;1141.55;;;999.90;;
3696;SDS011;60662;48.810;8.872;2023-07-20T09:17:17;1118.68;;;999.90;;
3696;SDS011;60662;48.810;8.872;2023-07-20T09:18:24;1069.63;;;976.67;;
3696;SDS011;60662;48.810;8.872;2023-07-20T09:19:27;967.88;;;885.17;;
3696;SDS011;60662;48.810;8.872;2023-07-20T09:20:30;1092.28;;;991.38;;
3696;SDS011;60662;48.810;8.872;2023-07-20T09:21:33;1043.72;;;951.47;;
3696;SDS011;60662;48.810;8.872;2023-07-20T09:22:36;1058.75;;;966.90;;
3696;SDS011;60662;48.810;8.872;2023-07-20T09:23:49;1365.28;;;999.90;;
3696;SDS011;60662;48.810;8.872;2023-07-20T09:24:57;1196.90;;;999.90;;
3696;SDS011;60662;48.810;8.872;2023-07-20T09:26:00;1131.78;;;997.78;;
3696;SDS011;60662;48.810;8.872;2023-07-20T09:27:02;995.65;;;899.05;;
3696;SDS011;60662;48.810;8.872;2023-07-20T09:28:06;1075.70;;;966.95;;
3696;SDS011;60662;48.810;8.872;2023-07-20T09:29:07;936.45;;;845.00;;
3696;SDS011;60662;48.810;8.872;2023-07-20T09:30:16;881.00;;;794.92;;
3696;SDS011;60662;48.810;8.872;2023-07-20T09:31:19;1100.40;;;942.38;;
3696;SDS011;60662;48.810;8.872;2023-07-20T09:32:21;917.50;;;833.95;;
3696;SDS011;60662;48.810;8.872;2023-07-20T09:33:25;1024.32;;;921.13;;
3696;SDS011;60662;48.810;8.872;2023-07-20T09:34:31;939.08;;;848.97;;
3696;SDS011;60662;48.810;8.872;2023-07-20T09:35:36;1029.78;;;926.47;;
3696;SDS011;60662;48.810;8.872;2023-07-20T09:36:43;702.92;;;641.80;;
3696;SDS011;60662;48.810;8.872;2023-07-20T09:37:50;852.20;;;779.20;;
3696;SDS011;60662;48.810;8.872;2023-07-20T09:39:02;1607.78;;;897.63;;
3696;SDS011;60662;48.810;8.872;2023-07-20T09:40:08;760.63;;;686.35;;
3696;SDS011;60662;48.810;8.872;2023-07-20T09:41:14;2250.00;;;999.90;;
3696;SDS011;60662;48.810;8.872;2023-07-20T09:42:22;763.67;;;697.33;;
3696;SDS011;60662;48.810;8.872;2023-07-20T09:43:29;772.40;;;704.55;;
3696;SDS011;60662;48.810;8.872;2023-07-20T09:44:31;1855.88;;;936.78;;
3696;SDS011;60662;48.810;8.872;2023-07-20T09:46:58;740.80;;;626.30;;
3696;SDS011;60662;48.810;8.872;2023-07-20T09:48:10;1567.32;;;859.90;;
3696;SDS011;60662;48.810;8.872;2023-07-20T09:49:16;2250.00;;;999.90;;
3696;SDS011;60662;48.810;8.872;2023-07-20T09:50:21;870.85;;;798.53;;
3696;SDS011;60662;48.810;8.872;2023-07-20T09:51:27;2250.00;;;999.90;;
3696;SDS011;60662;48.810;8.872;2023-07-20T09:52:29;2250.00;;;999.90;;
3696;SDS011;60662;48.810;8.872;2023-07-20T09:53:35;2250.00;;;999.90;;
3696;SDS011;60662;48.810;8.872;2023-07-20T09:54:38;1184.00;;;830.28;;
3696;SDS011;60662;48.810;8.872;2023-07-20T09:55:40;2250.00;;;999.90;;
3696;SDS011;60662;48.810;8.872;2023-07-20T09:56:43;880.03;;;804.03;;
3696;SDS011;60662;48.810;8.872;2023-07-20T09:57:46;2250.00;;;999.90;;
3696;SDS011;60662;48.810;8.872;2023-07-20T09:58:48;2250.00;;;999.90;;
3696;SDS011;60662;48.810;8.872;2023-07-20T09:59:50;846.97;;;776.10;;
3696;SDS011;60662;48.810;8.872;2023-07-20T10:00:52;889.20;;;813.13;;
3696;SDS011;60662;48.810;8.872;2023-07-20T10:01:58;982.80;;;897.22;;
3696;SDS011;60662;48.810;8.872;2023-07-20T10:03:04;895.80;;;819.70;;
3696;SDS011;60662;48.810;8.872;2023-07-20T10:04:07;1193.88;;;839.00;;
3696;SDS011;60662;48.810;8.872;2023-07-20T10:05:11;897.90;;;820.55;;
3696;SDS011;60662;48.810;8.872;2023-07-20T10:06:15;917.30;;;837.97;;
3696;SDS011;60662;48.810;8.872;2023-07-20T10:07:22;905.47;;;827.83;;
3696;SDS011;60662;48.810;8.872;2023-07-20T10:08:27;872.13;;;797.15;;
3696;SDS011;60662;48.810;8.872;2023-07-20T10:09:34;1064.50;;;966.50;;
3696;SDS011;60662;48.810;8.872;2023-07-20T10:10:41;739.80;;;677.00;;
3696;SDS011;60662;48.810;8.872;2023-07-20T10:11:48;675.33;;;617.17;;
3696;SDS011;60662;48.810;8.872;2023-07-20T10:13:18;2250.00;;;999.90;;
3696;SDS011;60662;48.810;8.872;2023-07-20T10:14:27;635.42;;;574.28;;
3696;SDS011;60662;48.810;8.872;2023-07-20T10:17:04;1363.30;;;736.97;;
3696;SDS011;60662;48.810;8.872;2023-07-20T10:18:09;2250.00;;;999.90;;
3696;SDS011;60662;48.810;8.872;2023-07-20T10:20:51;2250.00;;;999.90;;
3696;SDS011;60662;48.810;8.872;2023-07-20T10:22:03;2250.00;;;999.90;;
3696;SDS011;60662;48.810;8.872;2023-07-20T10:23:13;2250.00;;;999.90;;
3696;SDS011;60662;48.810;8.872;2023-07-20T10:24:14;2250.00;;;999.90;;
3696;SDS011;60662;48.810;8.872;2023-07-20T10:25:18;968.58;;;873.55;;
3696;SDS011;60662;48.810;8.872;2023-07-20T10:26:23;2250.00;;;999.90;;
3696;SDS011;60662;48.810;8.872;2023-07-20T10:27:26;2250.00;;;999.90;;
3696;SDS011;60662;48.810;8.872;2023-07-20T10:28:27;2250.00;;;999.90;;
3696;SDS011;60662;48.810;8.872;2023-07-20T10:29:29;2250.00;;;999.90;;
3696;SDS011;60662;48.810;8.872;2023-07-20T10:30:31;1256.40;;;888.30;;
3696;SDS011;60662;48.810;8.872;2023-07-20T10:31:37;2250.00;;;999.90;;
3696;SDS011;60662;48.810;8.872;2023-07-20T10:32:39;2250.00;;;999.90;;
3696;SDS011;60662;48.810;8.872;2023-07-20T10:33:43;2250.00;;;999.90;;
3696;SDS011;60662;48.810;8.872;2023-07-20T10:34:51;2250.00;;;999.90;;
3696;SDS011;60662;48.810;8.872;2023-07-20T10:35:57;2250.00;;;999.90;;
3696;SDS011;60662;48.810;8.872;2023-07-20T10:37:02;2250.00;;;999.90;;
3696;SDS011;60662;48.810;8.872;2023-07-20T10:38:04;2250.00;;;999.90;;
3696;SDS011;60662;48.810;8.872;2023-07-20T10:39:06;2250.00;;;999.90;;
3696;SDS011;60662;48.810;8.872;2023-07-20T10:41:33;2250.00;;;999.90;;
3696;SDS011;60662;48.810;8.872;2023-07-20T10:42:36;2250.00;;;999.90;;
3696;SDS011;60662;48.810;8.872;2023-07-20T10:43:41;2250.00;;;999.90;;
3696;SDS011;60662;48.810;8.872;2023-07-20T10:44:46;2250.00;;;999.90;;
3696;SDS011;60662;48.810;8.872;2023-07-20T10:45:49;2250.00;;;999.90;;
3696;SDS011;60662;48.810;8.872;2023-07-20T10:46:52;2250.00;;;999.90;;
3696;SDS011;60662;48.810;8.872;2023-07-20T10:48:06;2250.00;;;999.90;;
3696;SDS011;60662;48.810;8.872;2023-07-20T10:49:15;2250.00;;;999.90;;
3696;SDS011;60662;48.810;8.872;2023-07-20T10:50:19;2250.00;;;999.90;;
3696;SDS011;60662;48.810;8.872;2023-07-20T10:51:24;2250.00;;;999.90;;
3696;SDS011;60662;48.810;8.872;2023-07-20T10:52:25;2250.00;;;999.90;;
3696;SDS011;60662;48.810;8.872;2023-07-20T10:53:27;2250.00;;;999.90;;
3696;SDS011;60662;48.810;8.872;2023-07-20T10:55:30;2250.00;;;999.90;;
3696;SDS011;60662;48.810;8.872;2023-07-20T10:56:33;2250.00;;;999.90;;
3696;SDS011;60662;48.810;8.872;2023-07-20T10:57:35;2250.00;;;999.90;;
3696;SDS011;60662;48.810;8.872;2023-07-20T10:58:36;2250.00;;;999.90;;
3696;SDS011;60662;48.810;8.872;2023-07-20T10:59:38;2250.00;;;999.90;;
3696;SDS011;60662;48.810;8.872;2023-07-20T11:00:57;2250.00;;;999.90;;
3696;SDS011;60662;48.810;8.872;2023-07-20T11:02:00;2250.00;;;999.90;;
3696;SDS011;60662;48.810;8.872;2023-07-20T11:03:07;2250.00;;;999.90;;
3696;SDS011;60662;48.810;8.872;2023-07-20T11:04:09;2250.00;;;999.90;;
3696;SDS011;60662;48.810;8.872;2023-07-20T11:06:45;2250.00;;;999.90;;
3696;SDS011;60662;48.810;8.872;2023-07-20T11:07:47;2250.00;;;999.90;;
3696;SDS011;60662;48.810;8.872;2023-07-20T11:08:50;2250.00;;;999.90;;
3696;SDS011;60662;48.810;8.872;2023-07-20T11:09:57;2250.00;;;999.90;;
3696;SDS011;60662;48.810;8.872;2023-07-20T11:12:27;2250.00;;;999.90;;
3696;SDS011;60662;48.810;8.872;2023-07-20T11:13:29;2250.00;;;999.90;;
3696;SDS011;60662;48.810;8.872;2023-07-20T11:14:32;2250.00;;;999.90;;
3696;SDS011;60662;48.810;8.872;2023-07-20T11:15:52;2250.00;;;999.90;;
3696;SDS011;60662;48.810;8.872;2023-07-20T11:17:14;2250.00;;;999.90;;
3696;SDS011;60662;48.810;8.872;2023-07-20T11:18:16;2250.00;;;999.90;;
3696;SDS011;60662;48.810;8.872;2023-07-20T11:19:23;2250.00;;;999.90;;
3696;SDS011;60662;48.810;8.872;2023-07-20T11:20:29;2250.00;;;999.90;;
3696;SDS011;60662;48.810;8.872;2023-07-20T11:21:37;2250.00;;;999.90;;
3696;SDS011;60662;48.810;8.872;2023-07-20T11:23:01;2250.00;;;999.90;;
3696;SDS011;60662;48.810;8.872;2023-07-20T11:24:03;2250.00;;;999.90;;
3696;SDS011;60662;48.810;8.872;2023-07-20T11:25:06;2250.00;;;999.90;;
3696;SDS011;60662;48.810;8.872;2023-07-20T11:26:11;2250.00;;;999.90;;
3696;SDS011;60662;48.810;8.872;2023-07-20T11:27:14;2250.00;;;999.90;;
3696;SDS011;60662;48.810;8.872;2023-07-20T11:28:16;2250.00;;;999.90;;
3696;SDS011;60662;48.810;8.872;2023-07-20T11:29:21;2250.00;;;999.90;;
3696;SDS011;60662;48.810;8.872;2023-07-20T11:30:34;2250.00;;;999.90;;
3696;SDS011;60662;48.810;8.872;2023-07-20T11:31:37;2250.00;;;999.90;;
3696;SDS011;60662;48.810;8.872;2023-07-20T11:32:47;2250.00;;;999.90;;
3696;SDS011;60662;48.810;8.872;2023-07-20T11:33:49;2250.00;;;999.90;;
3696;SDS011;60662;48.810;8.872;2023-07-20T11:34:50;2250.00;;;999.90;;
3696;SDS011;60662;48.810;8.872;2023-07-20T11:35:52;2250.00;;;999.90;;
3696;SDS011;60662;48.810;8.872;2023-07-20T11:36:54;2250.00;;;999.90;;
3696;SDS011;60662;48.810;8.872;2023-07-20T11:37:58;2250.00;;;999.90;;
3696;SDS011;60662;48.810;8.872;2023-07-20T11:39:00;2250.00;;;999.90;;
3696;SDS011;60662;48.810;8.872;2023-07-20T11:40:02;2250.00;;;999.90;;
3696;SDS011;60662;48.810;8.872;2023-07-20T11:41:03;2250.00;;;999.90;;
3696;SDS011;60662;48.810;8.872;2023-07-20T11:42:05;2250.00;;;999.90;;
3696;SDS011;60662;48.810;8.872;2023-07-20T11:43:08;2250.00;;;999.90;;
3696;SDS011;60662;48.810;8.872;2023-07-20T11:44:13;2250.00;;;999.90;;
3696;SDS011;60662;48.810;8.872;2023-07-20T11:45:20;2250.00;;;999.90;;
3696;SDS011;60662;48.810;8.872;2023-07-20T11:46:21;2250.00;;;999.90;;
3696;SDS011;60662;48.810;8.872;2023-07-20T11:47:23;2250.00;;;999.90;;
3696;SDS011;60662;48.810;8.872;2023-07-20T11:48:30;2250.00;;;999.90;;
3696;SDS011;60662;48.810;8.872;2023-07-20T11:49:39;2250.00;;;999.90;;
3696;SDS011;60662;48.810;8.872;2023-07-20T11:50:42;2250.00;;;999.90;;
3696;SDS011;60662;48.810;8.872;2023-07-20T11:51:43;2250.00;;;999.90;;
3696;SDS011;60662;48.810;8.872;2023-07-20T11:52:45;2250.00;;;999.90;;
3696;SDS011;60662;48.810;8.872;2023-07-20T11:53:46;2250.00;;;999.90;;
3696;SDS011;60662;48.810;8.872;2023-07-20T11:54:48;2250.00;;;999.90;;
3696;SDS011;60662;48.810;8.872;2023-07-20T11:55:51;2250.00;;;999.90;;
3696;SDS011;60662;48.810;8.872;2023-07-20T11:56:53;2250.00;;;999.90;;
3696;SDS011;60662;48.810;8.872;2023-07-20T11:58:03;2250.00;;;999.90;;
3696;SDS011;60662;48.810;8.872;2023-07-20T11:59:08;2250.00;;;999.90;;
3696;SDS011;60662;48.810;8.872;2023-07-20T12:00:10;2250.00;;;999.90;;
3696;SDS011;60662;48.810;8.872;2023-07-20T12:01:12;2250.00;;;999.90;;
3696;SDS011;60662;48.810;8.872;2023-07-20T12:02:15;2250.00;;;999.90;;
3696;SDS011;60662;48.810;8.872;2023-07-20T12:03:16;2250.00;;;999.90;;
3696;SDS011;60662;48.810;8.872;2023-07-20T12:04:20;2250.00;;;999.90;;
3696;SDS011;60662;48.810;8.872;2023-07-20T12:05:24;2250.00;;;999.90;;
3696;SDS011;60662;48.810;8.872;2023-07-20T12:06:27;2250.00;;;999.90;;
3696;SDS011;60662;48.810;8.872;2023-07-20T12:07:35;2250.00;;;999.90;;
3696;SDS011;60662;48.810;8.872;2023-07-20T12:08:38;2250.00;;;999.90;;
3696;SDS011;60662;48.810;8.872;2023-07-20T12:09:42;2250.00;;;999.90;;
3696;SDS011;60662;48.810;8.872;2023-07-20T12:10:52;2250.00;;;999.90;;
3696;SDS011;60662;48.810;8.872;2023-07-20T12:11:53;2250.00;;;999.90;;
3696;SDS011;60662;48.810;8.872;2023-07-20T12:12:55;2250.00;;;999.90;;
3696;SDS011;60662;48.810;8.872;2023-07-20T12:14:03;2250.00;;;999.90;;
3696;SDS011;60662;48.810;8.872;2023-07-20T12:16:30;2250.00;;;999.90;;
3696;SDS011;60662;48.810;8.872;2023-07-20T12:17:32;2250.00;;;999.90;;
3696;SDS011;60662;48.810;8.872;2023-07-20T12:18:37;2250.00;;;999.90;;
3696;SDS011;60662;48.810;8.872;2023-07-20T12:19:39;2250.00;;;999.90;;
3696;SDS011;60662;48.810;8.872;2023-07-20T12:20:42;2250.00;;;999.90;;
3696;SDS011;60662;48.810;8.872;2023-07-20T12:21:44;2250.00;;;999.90;;
3696;SDS011;60662;48.810;8.872;2023-07-20T12:22:46;2250.00;;;999.90;;
3696;SDS011;60662;48.810;8.872;2023-07-20T12:23:49;2250.00;;;999.90;;
3696;SDS011;60662;48.810;8.872;2023-07-20T12:24:52;2250.00;;;999.90;;
3696;SDS011;60662;48.810;8.872;2023-07-20T12:25:54;2250.00;;;999.90;;
3696;SDS011;60662;48.810;8.872;2023-07-20T12:26:58;2250.00;;;999.90;;
3696;SDS011;60662;48.810;8.872;2023-07-20T12:28:06;2250.00;;;999.90;;
3696;SDS011;60662;48.810;8.872;2023-07-20T12:29:15;2250.00;;;999.90;;
3696;SDS011;60662;48.810;8.872;2023-07-20T12:30:17;2250.00;;;999.90;;
3696;SDS011;60662;48.810;8.872;2023-07-20T12:31:18;2266.67;;;999.90;;
3696;SDS011;60662;48.810;8.872;2023-07-20T12:32:20;2250.00;;;999.90;;
3696;SDS011;60662;48.810;8.872;2023-07-20T12:33:21;2250.00;;;999.90;;
3696;SDS011;60662;48.810;8.872;2023-07-20T12:34:23;2266.67;;;999.90;;
3696;SDS011;60662;48.810;8.872;2023-07-20T12:35:25;2266.67;;;999.90;;
3696;SDS011;60662;48.810;8.872;2023-07-20T12:36:27;2266.67;;;999.90;;
3696;SDS011;60662;48.810;8.872;2023-07-20T12:37:28;2250.00;;;999.90;;
3696;SDS011;60662;48.810;8.872;2023-07-20T12:38:30;2266.67;;;999.90;;
3696;SDS011;60662;48.810;8.872;2023-07-20T12:39:34;2266.67;;;999.90;;
3696;SDS011;60662;48.810;8.872;2023-07-20T12:40:36;2266.67;;;999.90;;
3696;SDS011;60662;48.810;8.872;2023-07-20T12:41:37;2266.67;;;999.90;;
3696;SDS011;60662;48.810;8.872;2023-07-20T12:42:39;2266.67;;;999.90;;
3696;SDS011;60662;48.810;8.872;2023-07-20T12:43:44;2266.67;;;999.90;;
3696;SDS011;60662;48.810;8.872;2023-07-20T12:44:54;2250.00;;;999.90;;
3696;SDS011;60662;48.810;8.872;2023-07-20T12:45:56;2250.00;;;999.90;;
3696;SDS011;60662;48.810;8.872;2023-07-20T12:46:57;2250.00;;;999.90;;
3696;SDS011;60662;48.810;8.872;2023-07-20T12:47:59;2250.00;;;999.90;;
3696;SDS011;60662;48.810;8.872;2023-07-20T12:49:00;2250.00;;;999.90;;
3696;SDS011;60662;48.810;8.872;2023-07-20T12:50:02;2250.00;;;999.90;;
3696;SDS011;60662;48.810;8.872;2023-07-20T12:51:06;2250.00;;;999.90;;
3696;SDS011;60662;48.810;8.872;2023-07-20T12:52:08;2250.00;;;999.90;;
3696;SDS011;60662;48.810;8.872;2023-07-20T12:53:09;2250.00;;;999.90;;
3696;SDS011;60662;48.810;8.872;2023-07-20T12:54:11;2250.00;;;999.90;;
3696;SDS011;60662;48.810;8.872;2023-07-20T12:55:12;2250.00;;;999.90;;
3696;SDS011;60662;48.810;8.872;2023-07-20T12:56:14;2250.00;;;999.90;;
3696;SDS011;60662;48.810;8.872;2023-07-20T12:57:19;2250.00;;;999.90;;
3696;SDS011;60662;48.810;8.872;2023-07-20T12:58:20;2250.00;;;999.90;;
3696;SDS011;60662;48.810;8.872;2023-07-20T12:59:22;2250.00;;;999.90;;
3696;SDS011;60662;48.810;8.872;2023-07-20T13:00:23;2266.67;;;999.90;;
3696;SDS011;60662;48.810;8.872;2023-07-20T13:01:25;2250.00;;;999.90;;
3696;SDS011;60662;48.810;8.872;2023-07-20T13:02:26;2250.00;;;999.90;;
3696;SDS011;60662;48.810;8.872;2023-07-20T13:03:28;2250.00;;;999.90;;
3696;SDS011;60662;48.810;8.872;2023-07-20T13:04:32;2250.00;;;999.90;;
3696;SDS011;60662;48.810;8.872;2023-07-20T13:05:34;2250.00;;;999.90;;
3696;SDS011;60662;48.810;8.872;2023-07-20T13:06:39;2250.00;;;999.90;;
3696;SDS011;60662;48.810;8.872;2023-07-20T13:07:41;2250.00;;;999.90;;
3696;SDS011;60662;48.810;8.872;2023-07-20T13:08:46;2266.67;;;999.90;;
3696;SDS011;60662;48.810;8.872;2023-07-20T13:09:48;2250.00;;;999.90;;
3696;SDS011;60662;48.810;8.872;2023-07-20T13:10:49;2250.00;;;999.90;;
3696;SDS011;60662;48.810;8.872;2023-07-20T13:11:51;2250.00;;;999.90;;
3696;SDS011;60662;48.810;8.872;2023-07-20T13:12:53;2250.00;;;999.90;;
3696;SDS011;60662;48.810;8.872;2023-07-20T13:13:55;2266.67;;;999.90;;
3696;SDS011;60662;48.810;8.872;2023-07-20T13:14:56;2250.00;;;999.90;;
3696;SDS011;60662;48.810;8.872;2023-07-20T13:16:01;2266.67;;;999.90;;
3696;SDS011;60662;48.810;8.872;2023-07-20T13:17:03;2266.67;;;999.90;;
3696;SDS011;60662;48.810;8.872;2023-07-20T13:18:04;2266.67;;;999.90;;
3696;SDS011;60662;48.810;8.872;2023-07-20T13:19:06;2250.00;;;999.90;;
3696;SDS011;60662;48.810;8.872;2023-07-20T13:20:08;2266.67;;;999.90;;
3696;SDS011;60662;48.810;8.872;2023-07-20T13:21:12;2266.67;;;999.90;;
3696;SDS011;60662;48.810;8.872;2023-07-20T13:22:14;2266.67;;;999.90;;
3696;SDS011;60662;48.810;8.872;2023-07-20T13:23:15;2266.67;;;999.90;;
3696;SDS011;60662;48.810;8.872;2023-07-20T13:24:17;2250.00;;;999.90;;
3696;SDS011;60662;48.810;8.872;2023-07-20T13:25:18;2250.00;;;999.90;;
3696;SDS011;60662;48.810;8.872;2023-07-20T13:26:22;2250.00;;;999.90;;
3696;SDS011;60662;48.810;8.872;2023-07-20T13:27:24;2266.67;;;999.90;;
3696;SDS011;60662;48.810;8.872;2023-07-20T13:28:27;2266.67;;;999.90;;
3696;SDS011;60662;48.810;8.872;2023-07-20T13:29:28;2266.67;;;999.90;;
3696;SDS011;60662;48.810;8.872;2023-07-20T13:30:29;1152.20;;;712.93;;
3696;SDS011;60662;48.810;8.872;2023-07-20T13:31:31;680.13;;;618.57;;
3696;SDS011;60662;48.810;8.872;2023-07-20T13:32:35;2266.67;;;999.90;;
3696;SDS011;60662;48.810;8.872;2023-07-20T13:33:37;2266.67;;;999.90;;
3696;SDS011;60662;48.810;8.872;2023-07-20T13:34:40;2250.00;;;999.90;;
3696;SDS011;60662;48.810;8.872;2023-07-20T13:35:41;2250.00;;;999.90;;
3696;SDS011;60662;48.810;8.872;2023-07-20T13:36:46;2250.00;;;999.90;;
3696;SDS011;60662;48.810;8.872;2023-07-20T13:37:50;2250.00;;;999.90;;
3696;SDS011;60662;48.810;8.872;2023-07-20T13:38:52;2266.67;;;999.90;;
3696;SDS011;60662;48.810;8.872;2023-07-20T13:39:55;2266.67;;;999.90;;
3696;SDS011;60662;48.810;8.872;2023-07-20T13:40:57;2250.00;;;999.90;;
3696;SDS011;60662;48.810;8.872;2023-07-20T13:41:59;2266.67;;;999.90;;
3696;SDS011;60662;48.810;8.872;2023-07-20T13:43:03;2266.67;;;999.90;;
3696;SDS011;60662;48.810;8.872;2023-07-20T13:44:06;2266.67;;;999.90;;
3696;SDS011;60662;48.810;8.872;2023-07-20T13:45:08;2266.67;;;999.90;;
3696;SDS011;60662;48.810;8.872;2023-07-20T13:46:10;2266.67;;;999.90;;
3696;SDS011;60662;48.810;8.872;2023-07-20T13:47:17;2266.67;;;999.90;;
3696;SDS011;60662;48.810;8.872;2023-07-20T13:48:22;2266.67;;;999.90;;
3696;SDS011;60662;48.810;8.872;2023-07-20T13:49:28;1682.17;;;860.87;;
3696;SDS011;60662;48.810;8.872;2023-07-20T13:50:29;2266.67;;;999.90;;
3696;SDS011;60662;48.810;8.872;2023-07-20T13:51:43;2266.67;;;999.90;;
3696;SDS011;60662;48.810;8.872;2023-07-20T13:52:44;2250.00;;;999.90;;
3696;SDS011;60662;48.810;8.872;2023-07-20T13:53:47;2266.67;;;999.90;;
3696;SDS011;60662;48.810;8.872;2023-07-20T13:54:51;2266.67;;;999.90;;
3696;SDS011;60662;48.810;8.872;2023-07-20T13:55:55;2266.67;;;999.90;;
3696;SDS011;60662;48.810;8.872;2023-07-20T13:57:01;2266.67;;;999.90;;
3696;SDS011;60662;48.810;8.872;2023-07-20T13:58:03;2250.00;;;999.90;;
3696;SDS011;60662;48.810;8.872;2023-07-20T13:59:05;2250.00;;;999.90;;
3696;SDS011;60662;48.810;8.872;2023-07-20T14:00:07;2266.67;;;999.90;;
3696;SDS011;60662;48.810;8.872;2023-07-20T14:01:12;2250.00;;;999.90;;